Time;durP1;ratioP1;P1;durP2;ratioP2;P2;SDS_P1;SDS_P2;PMS_P1;PMS_P2;Temp;Humidity;BMP_temperature;BMP_pressure;BME280_temperature;BME280_humidity;BME280_pressure;Samples;Min_cycle;Max_cycle;Signal;HPM_P1;HPM_P2
2020/12/23 00:01:27;;;;;;;53.55;30.42;;;11.10;99.90;;;11.11;98.85;101219.81;5074250;28;20062;-76
2020/12/23 00:03:56;;;;;;;61.20;32.13;;;11.00;99.90;;;11.08;99.03;101206.59;5074515;28;20131;-76
2020/12/23 00:06:33;;;;;;;59.22;32.75;;;11.10;99.90;;;11.50;98.89;101240.94;5074349;28;20083;-75
2020/12/23 00:09:02;;;;;;;56.05;31.52;;;11.20;99.90;;;11.56;98.62;101246.22;5074473;28;20041;-75
2020/12/23 00:11:31;;;;;;;58.88;31.77;;;11.30;99.90;;;11.55;98.22;101260.38;5074244;28;20199;-76
2020/12/23 00:13:58;;;;;;;61.75;33.80;;;11.40;99.90;;;11.81;98.01;101243.56;5073582;28;20055;-73
2020/12/23 00:16:26;;;;;;;57.90;31.58;;;11.60;99.90;;;11.08;97.51;101153.66;5073825;28;20840;-73
2020/12/23 00:18:53;;;;;;;65.57;32.10;;;11.50;99.90;;;11.41;98.52;101221.53;5074057;28;20045;-73
2020/12/23 00:21:20;;;;;;;63.42;31.48;;;11.30;99.90;;;11.47;99.12;101225.06;5074112;28;20040;-73
2020/12/23 00:23:48;;;;;;;62.70;31.65;;;11.30;99.90;;;11.45;99.09;101220.66;5073920;28;20124;-73
2020/12/23 00:26:15;;;;;;;58.78;32.22;;;11.20;99.90;;;11.38;99.33;101224.22;5073526;28;20036;-73
2020/12/23 00:28:43;;;;;;;59.10;30.80;;;11.20;99.90;;;11.44;99.52;101219.75;5074078;28;20055;-73
2020/12/23 00:31:15;;;;;;;53.88;31.85;;;11.20;99.90;;;11.42;99.50;101213.59;5073946;28;20048;-73
2020/12/23 00:33:43;;;;;;;51.38;31.35;;;11.20;99.90;;;11.51;99.71;101215.34;5073349;28;20524;-73
2020/12/23 00:36:13;;;;;;;53.35;30.63;;;11.20;99.90;;;11.21;99.62;101152.72;5073426;28;20494;-73
2020/12/23 00:38:41;;;;;;;52.67;30.47;;;11.30;99.90;;;11.46;99.52;101212.69;5073909;28;20041;-73
2020/12/23 00:41:09;;;;;;;50.83;30.70;;;11.20;99.90;;;11.40;99.91;101215.34;5073491;28;20048;-73
2020/12/23 00:43:36;;;;;;;56.60;31.15;;;11.20;99.90;;;11.39;100.00;101202.13;5073303;28;20043;-73
2020/12/23 00:46:10;;;;;;;51.00;30.77;;;11.20;99.90;;;11.06;100.00;101163.38;5073498;28;20043;-73
2020/12/23 00:48:38;;;;;;;49.58;31.40;;;11.20;99.90;;;11.40;100.00;101198.59;5072361;28;20499;-73
2020/12/23 00:51:10;;;;;;;56.63;30.80;;;11.20;99.90;;;11.31;100.00;101201.25;5073394;28;20044;-73
2020/12/23 00:53:38;;;;;;;53.83;32.53;;;11.20;99.90;;;11.45;100.00;101213.59;5073495;28;20040;-73
2020/12/23 00:56:06;;;;;;;56.88;32.63;;;11.20;99.90;;;11.62;100.00;101209.13;5071958;28;20486;-75
2020/12/23 00:58:34;;;;;;;63.80;33.45;;;11.30;99.90;;;11.59;100.00;101206.47;5071865;28;20448;-75
2020/12/23 01:01:01;;;;;;;75.10;34.70;;;11.30;99.90;;;11.55;100.00;101170.31;5072925;28;20097;-75
2020/12/23 01:03:44;;;;;;;61.80;32.20;;;11.50;99.90;;;11.92;99.51;101239.09;5072955;28;20049;-75
2020/12/23 01:06:13;;;;;;;69.72;33.00;;;11.60;99.90;;;11.97;98.86;101203.72;5072819;28;20448;-74
2020/12/23 01:08:42;;;;;;;59.28;32.50;;;11.70;99.90;;;12.07;98.69;101207.19;5073057;28;20056;-75
2020/12/23 01:11:11;;;;;;;65.63;33.47;;;11.80;99.90;;;11.92;98.12;101170.16;5073209;28;20090;-74
2020/12/23 01:13:39;;;;;;;76.13;32.78;;;11.90;99.90;;;12.16;98.23;101191.22;5072917;28;20047;-75
2020/12/23 01:16:08;;;;;;;72.13;34.80;;;11.90;99.90;;;12.11;97.98;101179.78;5072805;28;20045;-75
2020/12/23 01:18:35;;;;;;;71.43;33.88;;;11.90;99.90;;;12.13;97.90;101165.63;5073109;28;20044;-74
2020/12/23 01:21:03;;;;;;;76.70;35.47;;;12.00;99.90;;;12.03;98.12;101171.00;5072606;28;20060;-75
2020/12/23 01:23:33;;;;;;;99.75;36.50;;;11.80;99.90;;;11.75;98.37;101126.06;5072490;28;20071;-75
2020/12/23 01:26:00;;;;;;;107.37;36.87;;;11.80;99.90;;;11.78;99.35;101175.53;5071821;28;20045;-75
2020/12/23 01:28:28;;;;;;;86.28;38.70;;;11.60;99.90;;;11.77;100.00;101172.00;5072719;28;20060;-75
2020/12/23 01:30:55;;;;;;;107.03;39.30;;;11.60;99.90;;;11.86;99.89;101164.91;5072655;28;20043;-75
2020/12/23 01:33:26;;;;;;;127.95;42.38;;;11.60;99.90;;;11.60;100.00;101141.13;5072088;28;20569;-75
2020/12/23 01:35:53;;;;;;;100.28;41.72;;;11.50;99.90;;;11.56;100.00;101155.28;5072389;28;20048;-75
2020/12/23 01:38:23;;;;;;;124.72;43.60;;;11.40;99.90;;;11.60;100.00;101152.63;5072440;28;20079;-75
2020/12/23 01:40:59;;;;;;;108.60;43.90;;;11.40;99.90;;;11.66;100.00;101157.91;5072592;28;20052;-75
2020/12/23 01:43:30;;;;;;;102.00;43.63;;;11.40;99.90;;;11.64;100.00;101140.22;5072618;28;20127;-74
2020/12/23 01:45:58;;;;;;;107.07;45.17;;;11.60;99.90;;;11.77;100.00;101149.91;5072677;28;20125;-75
2020/12/23 01:48:30;;;;;;;103.15;46.63;;;11.60;99.90;;;11.77;100.00;101144.59;5072221;28;20044;-74
2020/12/23 01:51:01;;;;;;;95.53;48.00;;;11.60;99.90;;;11.79;100.00;101145.47;5072486;28;20481;-74
2020/12/23 01:53:29;;;;;;;101.90;48.20;;;11.60;99.90;;;11.86;100.00;101146.34;5071270;28;20048;-74
2020/12/23 01:55:58;;;;;;;96.57;46.97;;;11.60;99.90;;;11.94;100.00;101136.59;5072319;28;20123;-75
2020/12/23 01:58:28;;;;;;;94.43;46.25;;;11.80;99.90;;;11.60;100.00;101093.44;5072337;28;20036;-74
2020/12/23 02:00:57;;;;;;;98.53;48.17;;;11.70;99.90;;;11.81;100.00;101145.50;5072377;28;20456;-75
2020/12/23 02:03:25;;;;;;;100.23;47.17;;;11.60;99.90;;;11.78;100.00;101120.78;5072292;28;20064;-74
2020/12/23 02:05:57;;;;;;;91.93;46.97;;;11.70;99.90;;;11.84;100.00;101132.22;5070664;28;20401;-74
2020/12/23 02:08:24;;;;;;;95.15;47.95;;;11.70;99.90;;;11.78;100.00;101103.97;5072341;28;20048;-74
2020/12/23 02:10:52;;;;;;;86.15;46.13;;;11.80;99.90;;;11.77;100.00;101103.09;5072116;28;20071;-74
2020/12/23 02:13:35;;;;;;;91.95;48.05;;;11.80;99.90;;;11.94;100.00;101105.66;5072185;28;20056;-74
2020/12/23 02:16:04;;;;;;;84.35;46.40;;;11.80;99.90;;;12.00;100.00;101107.38;5072283;28;20044;-74
2020/12/23 02:18:35;;;;;;;100.50;49.70;;;11.80;99.90;;;11.95;100.00;101099.47;5072251;28;20393;-74
2020/12/23 02:21:03;;;;;;;92.85;48.50;;;11.80;99.90;;;11.93;100.00;101113.59;5071070;28;20098;-74
2020/12/23 02:23:32;;;;;;;97.60;51.33;;;11.70;99.90;;;11.95;100.00;101091.50;5070929;28;20887;-74
2020/12/23 02:25:59;;;;;;;94.50;51.13;;;11.80;99.90;;;12.09;100.00;101117.94;5072422;28;20048;-74
2020/12/23 02:28:29;;;;;;;87.47;46.85;;;11.80;99.90;;;12.16;100.00;101131.13;5072122;28;20414;-74
2020/12/23 02:31:03;;;;;;;89.47;47.25;;;11.90;99.90;;;12.00;100.00;101107.38;5072144;28;20123;-74
2020/12/23 02:33:30;;;;;;;92.15;48.70;;;12.00;99.90;;;12.14;100.00;101121.41;5072385;28;20049;-75
2020/12/23 02:35:58;;;;;;;87.32;48.45;;;11.90;99.90;;;12.02;100.00;101100.31;5072166;28;20036;-74
2020/12/23 02:38:26;;;;;;;89.72;48.40;;;12.00;99.90;;;12.15;100.00;101115.25;5074603;28;20443;-74
2020/12/23 02:40:54;;;;;;;89.03;47.45;;;12.00;99.90;;;12.12;100.00;101116.13;5076107;28;20121;-75
2020/12/23 02:43:22;;;;;;;84.78;47.63;;;12.00;99.90;;;12.00;100.00;101078.22;5074883;28;20044;-75
2020/12/23 02:45:49;;;;;;;86.57;46.95;;;12.00;99.90;;;12.26;100.00;101097.47;5076091;28;20466;-75
2020/12/23 02:48:16;;;;;;;79.68;48.40;;;12.10;99.90;;;12.07;100.00;101091.44;5074836;28;20135;-74
2020/12/23 02:50:44;;;;;;;80.70;47.67;;;12.00;99.90;;;12.19;100.00;101095.75;5075991;28;20068;-74
2020/12/23 02:53:11;;;;;;;86.20;49.75;;;12.00;99.90;;;12.22;100.00;101101.03;5075364;28;20494;-75
2020/12/23 02:55:41;;;;;;;87.50;47.88;;;12.00;99.90;;;12.37;100.00;101098.25;5075778;28;20048;-75
2020/12/23 02:58:09;;;;;;;82.10;47.08;;;12.20;99.90;;;12.38;100.00;101098.25;5075776;28;20105;-74
2020/12/23 03:00:37;;;;;;;79.05;46.72;;;12.20;99.90;;;12.38;100.00;101085.00;5075373;28;20036;-75
2020/12/23 03:03:04;;;;;;;77.20;47.20;;;12.20;99.90;;;12.37;100.00;101074.38;5075210;28;20044;-74
2020/12/23 03:05:32;;;;;;;91.72;49.75;;;12.20;99.90;;;12.19;100.00;101040.97;5075951;28;20050;-74
2020/12/23 03:07:59;;;;;;;78.70;48.67;;;12.20;99.90;;;12.35;100.00;101065.59;5075106;28;20082;-74
2020/12/23 03:10:26;;;;;;;71.97;47.38;;;12.20;99.90;;;12.43;100.00;101058.41;5075215;28;20094;-75
2020/12/23 03:12:54;;;;;;;73.40;46.42;;;12.30;99.90;;;12.42;100.00;101064.63;5075008;28;20051;-75
2020/12/23 03:15:23;;;;;;;65.72;44.42;;;12.30;99.90;;;12.41;100.00;101060.19;5075300;28;20068;-75
2020/12/23 03:17:50;;;;;;;69.50;46.60;;;12.30;99.90;;;12.24;100.00;101015.28;5075139;28;20490;-75
2020/12/23 03:20:18;;;;;;;63.65;44.70;;;12.30;99.90;;;12.62;99.83;101055.56;5075068;28;20102;-75
2020/12/23 03:22:45;;;;;;;68.63;46.35;;;12.40;99.90;;;12.64;99.51;101047.59;5074907;28;20055;-75
2020/12/23 03:25:13;;;;;;;67.53;48.08;;;12.50;99.90;;;12.44;99.72;101002.72;5075179;28;20044;-75
2020/12/23 03:27:40;;;;;;;65.13;46.53;;;12.50;99.90;;;12.48;99.99;101007.09;5074864;28;20040;-74
2020/12/23 03:30:07;;;;;;;75.72;48.95;;;12.60;99.90;;;12.58;99.86;101031.75;5075176;28;20040;-75
2020/12/23 03:32:35;;;;;;;69.05;47.30;;;12.60;99.90;;;12.69;99.97;101043.13;5073548;28;20057;-74
2020/12/23 03:35:18;;;;;;;72.57;50.13;;;12.60;99.90;;;12.76;99.75;101042.16;5075184;28;20052;-74
2020/12/23 03:37:45;;;;;;;70.30;48.25;;;12.70;99.90;;;12.81;99.71;101043.03;5073748;28;20068;-74
2020/12/23 03:40:13;;;;;;;69.53;47.45;;;12.70;99.90;;;12.81;99.59;101034.16;5075212;28;20048;-74
2020/12/23 03:42:43;;;;;;;67.47;48.83;;;12.90;99.90;;;12.93;99.38;101040.19;5074595;28;20090;-76
2020/12/23 03:45:10;;;;;;;74.68;47.88;;;12.90;99.90;;;12.99;99.19;101036.63;5074638;28;20049;-75
2020/12/23 03:47:39;;;;;;;68.20;46.45;;;12.90;99.90;;;13.04;98.76;101032.16;5074975;28;20074;-76
2020/12/23 03:50:07;;;;;;;60.15;44.17;;;13.00;99.90;;;12.98;98.61;101022.47;5073717;28;20511;-75
2020/12/23 03:52:34;;;;;;;57.58;43.13;;;13.00;99.90;;;12.44;98.48;100936.38;5074438;28;20059;-75
2020/12/23 03:55:01;;;;;;;55.65;40.75;;;12.90;99.90;;;12.94;99.08;101026.03;5074366;28;20071;-75
2020/12/23 03:57:29;;;;;;;54.85;39.70;;;12.90;99.90;;;13.05;99.07;101032.13;5074557;28;20048;-74
2020/12/23 03:59:56;;;;;;;63.80;42.03;;;12.90;99.90;;;13.02;98.80;101031.25;5074532;28;20421;-75
2020/12/23 04:02:23;;;;;;;55.05;41.55;;;12.90;99.90;;;12.85;98.94;101012.88;5073245;28;20101;-75
2020/12/23 04:04:51;;;;;;;53.88;38.85;;;12.90;99.90;;;13.00;98.90;101012.69;5074558;28;20144;-75
2020/12/23 04:07:19;;;;;;;51.80;38.55;;;12.90;99.90;;;13.01;98.86;101010.91;5074132;28;20045;-74
2020/12/23 04:09:46;;;;;;;50.03;37.15;;;12.90;99.90;;;13.11;98.76;101029.41;5074641;28;20489;-74
2020/12/23 04:12:14;;;;;;;47.28;37.20;;;13.00;99.90;;;13.08;98.52;101008.22;5074463;28;20078;-74
2020/12/23 04:14:41;;;;;;;47.13;36.47;;;12.90;99.90;;;13.19;98.72;101000.97;5073900;28;20502;-74
2020/12/23 04:17:08;;;;;;;48.30;36.35;;;13.00;99.90;;;13.08;98.64;101005.56;5073899;28;20056;-74
2020/12/23 04:19:36;;;;;;;49.85;37.47;;;12.90;99.90;;;12.97;98.91;100996.78;5072825;28;20135;-74
2020/12/23 04:22:04;;;;;;;48.40;37.17;;;12.80;99.90;;;12.80;99.53;100977.53;5073820;28;20052;-74
2020/12/23 04:24:32;;;;;;;51.50;38.08;;;12.70;99.90;;;12.74;100.00;100982.91;5074007;28;20045;-74
2020/12/23 04:26:59;;;;;;;49.58;38.55;;;12.60;99.90;;;12.64;100.00;100974.16;5073691;28;20131;-74
2020/12/23 04:29:27;;;;;;;48.72;36.88;;;12.50;99.90;;;12.42;100.00;100934.63;5072305;28;20048;-74
2020/12/23 04:31:54;;;;;;;48.75;37.05;;;12.40;99.90;;;12.63;100.00;100966.25;5073721;28;20036;-74
2020/12/23 04:34:22;;;;;;;45.35;35.55;;;12.40;99.90;;;12.25;100.00;100894.16;5073802;28;20113;-75
2020/12/23 04:36:49;;;;;;;47.72;37.47;;;12.40;99.90;;;12.76;100.00;100967.84;5073838;28;20041;-74
2020/12/23 04:39:17;;;;;;;44.22;34.83;;;12.50;99.90;;;12.02;100.00;100833.41;5073550;28;20078;-75
2020/12/23 04:41:45;;;;;;;41.40;34.22;;;12.60;99.90;;;12.85;100.00;100974.84;5073724;28;20048;-75
2020/12/23 04:44:12;;;;;;;40.22;32.47;;;12.60;99.90;;;13.01;100.00;100979.03;5073327;28;20044;-75
2020/12/23 04:46:40;;;;;;;36.50;30.95;;;12.80;99.90;;;13.08;99.96;100986.09;5073306;28;20044;-75
2020/12/23 04:49:08;;;;;;;37.83;30.67;;;12.90;99.90;;;13.04;99.41;100952.50;5073650;28;20043;-75
2020/12/23 04:51:38;;;;;;;37.13;31.02;;;13.00;99.90;;;13.13;98.80;100969.19;5073194;28;20463;-74
2020/12/23 04:54:08;;;;;;;38.03;31.98;;;13.00;99.90;;;13.01;99.27;100974.63;5073068;28;20072;-75
2020/12/23 04:56:37;;;;;;;37.10;31.13;;;12.80;99.90;;;13.07;99.55;100969.25;5073469;28;20066;-73
2020/12/23 04:59:05;;;;;;;37.47;32.30;;;12.80;99.90;;;13.03;99.07;100967.53;5073130;28;20451;-74
2020/12/23 05:01:32;;;;;;;38.75;32.55;;;12.80;99.90;;;12.93;99.29;100963.22;5072947;28;20082;-74
2020/12/23 05:04:00;;;;;;;39.00;32.53;;;12.80;99.90;;;12.85;100.00;100927.94;5072913;28;20098;-74
2020/12/23 05:06:27;;;;;;;38.60;31.65;;;12.70;99.90;;;12.96;99.89;100941.94;5073617;28;20379;-74
2020/12/23 05:08:54;;;;;;;37.35;31.58;;;12.70;99.90;;;13.05;99.76;100943.63;5073126;28;20040;-70
2020/12/23 05:11:22;;;;;;;37.78;32.35;;;12.80;99.90;;;13.15;99.61;100945.25;5071481;28;20143;-70
2020/12/23 05:13:50;;;;;;;35.75;30.67;;;12.90;99.90;;;13.00;99.10;100909.16;5072760;28;20044;-70
2020/12/23 05:16:24;;;;;;;35.75;31.08;;;12.90;99.90;;;13.14;99.06;100922.28;5072787;28;20453;-70
2020/12/23 05:18:57;;;;;;;34.70;30.05;;;13.00;99.90;;;13.39;98.91;100936.97;5073023;28;20051;-70
2020/12/23 05:21:26;;;;;;;37.50;31.05;;;13.10;99.90;;;13.38;98.12;100945.81;5073102;28;20052;-69
2020/12/23 05:23:54;;;;;;;37.03;30.73;;;13.20;99.90;;;13.20;97.87;100920.38;5072824;28;20094;-71
2020/12/23 05:26:23;;;;;;;40.80;32.60;;;13.20;99.90;;;13.40;97.98;100938.69;5072503;28;20378;-71
2020/12/23 05:28:53;;;;;;;37.85;31.80;;;13.20;99.90;;;13.34;97.70;100939.66;5072723;28;20086;-71
2020/12/23 05:31:21;;;;;;;33.28;27.52;;;13.20;99.90;;;13.37;97.52;100942.28;5072421;28;20048;-70
2020/12/23 05:33:50;;;;;;;28.35;25.10;;;13.30;99.90;;;13.48;97.44;100943.00;5071950;28;20088;-70
2020/12/23 05:36:36;;;;;;;25.15;22.33;;;13.30;99.90;;;13.67;97.24;100956.00;5072739;28;20052;-70
2020/12/23 05:39:07;;;;;;;21.38;18.63;;;13.50;99.90;;;13.76;96.87;100956.75;5072494;28;20139;-70
2020/12/23 05:41:35;;;;;;;;;;;13.60;99.90;;;13.74;96.29;100942.59;5072831;28;20044;-70
2020/12/23 05:44:18;;;;;;;18.27;16.38;;;13.70;99.90;;;13.87;96.34;100943.28;5072522;28;19967;-70
2020/12/23 05:46:49;;;;;;;20.55;16.73;;;13.70;99.90;;;13.93;96.02;100932.53;5072281;28;20067;-70
2020/12/23 05:49:18;;;;;;;19.15;17.17;;;13.70;99.90;;;13.83;96.00;100920.28;5072377;28;20094;-71
2020/12/23 05:51:46;;;;;;;20.58;18.48;;;13.70;99.90;;;13.95;95.98;100928.94;5072429;28;20048;-70
2020/12/23 05:54:14;;;;;;;22.35;19.95;;;13.70;99.90;;;14.01;95.34;100936.84;5072299;28;20062;-71
2020/12/23 05:56:42;;;;;;;22.00;19.55;;;13.80;99.90;;;13.96;95.38;100921.81;5072484;28;20048;-71
2020/12/23 05:59:11;;;;;;;22.92;20.48;;;13.80;99.90;;;13.95;95.29;100918.31;5071018;28;20493;-70
2020/12/23 06:01:39;;;;;;;21.60;19.30;;;13.80;99.90;;;14.01;95.15;100928.84;5072340;28;20036;-70
2020/12/23 06:04:08;;;;;;;20.77;18.45;;;13.80;99.90;;;14.07;95.26;100927.84;5071998;28;20059;-70
2020/12/23 06:06:57;;;;;;;21.60;19.13;;;13.80;99.90;;;14.06;95.19;100926.97;5072583;28;20071;-70
2020/12/23 06:09:37;;;;;;;21.42;18.45;;;13.80;99.90;;;13.85;94.96;100898.09;5070945;28;20106;-70
2020/12/23 06:12:17;;;;;;;17.70;15.90;;;13.80;99.90;;;13.93;95.22;100905.94;5071971;28;20052;-70
2020/12/23 06:14:56;;;;;;;16.58;14.90;;;13.80;99.90;;;13.42;95.06;100827.94;5071940;28;20437;-70
2020/12/23 06:17:25;;;;;;;16.00;14.40;;;13.70;99.90;;;13.67;95.88;100903.72;5072169;28;20052;-70
2020/12/23 06:19:56;;;;;;;16.48;14.75;;;13.60;99.90;;;12.92;95.90;100774.75;5104607;28;20469;-70
2020/12/23 06:22:27;;;;;;;15.98;14.27;;;13.50;99.90;;;13.78;96.28;100919.50;5072142;28;20052;-71
2020/12/23 06:24:54;;;;;;;17.92;13.77;;;13.50;99.90;;;13.74;96.08;100920.44;5072170;28;20379;-70
2020/12/23 06:27:22;;;;;;;16.23;14.52;;;13.50;99.90;;;13.78;96.34;100925.66;5071030;28;20102;-70
2020/12/23 06:29:50;;;;;;;15.88;14.30;;;13.40;99.90;;;13.73;96.20;100924.00;5070776;28;20040;-70
2020/12/23 06:32:23;;;;;;;16.08;14.52;;;13.50;99.90;;;13.48;96.05;100873.03;5070439;28;20524;-70
2020/12/23 06:34:56;;;;;;;15.10;13.45;;;13.40;99.90;;;13.76;96.17;100914.22;5071790;28;20041;-70
2020/12/23 06:37:28;;;;;;;15.52;14.02;;;13.50;99.90;;;13.82;95.83;100908.78;5071926;28;20052;-71
2020/12/23 06:39:56;;;;;;;14.70;13.20;;;13.50;99.90;;;13.78;95.58;100912.38;5071757;28;20106;-70
2020/12/23 06:42:31;;;;;;;13.80;12.40;;;13.50;99.90;;;13.71;95.92;100888.59;5071888;28;20064;-70
2020/12/23 06:45:08;;;;;;;12.85;11.57;;;13.50;99.90;;;13.14;95.24;100769.09;5072019;28;20048;-70
2020/12/23 06:47:39;;;;;;;10.98;9.88;;;13.60;99.90;;;13.79;95.14;100905.28;5070595;28;20482;-70
2020/12/23 06:50:29;;;;;;;11.02;10.02;;;13.60;99.90;;;13.68;95.74;100878.03;5071866;28;20485;-70
2020/12/23 06:52:57;;;;;;;;;;;13.50;99.90;;;13.72;95.21;100869.97;5072457;28;20040;-70
2020/12/23 06:55:48;;;;;;;9.77;8.88;;;13.60;99.90;;;13.84;95.40;100898.13;5071628;28;20019;-71
2020/12/23 06:58:38;;;;;;;8.25;7.55;;;13.60;99.90;;;13.76;95.66;100898.28;5071734;28;20398;-70
2020/12/23 07:01:20;;;;;;;8.05;7.35;;;13.50;99.90;;;13.47;95.85;100853.53;5070423;28;20084;-70
2020/12/23 07:03:48;;;;;;;6.35;5.75;;;13.40;99.90;;;13.71;95.89;100896.56;5071804;28;20090;-70
2020/12/23 07:06:30;;;;;;;5.35;4.95;;;13.40;99.90;;;13.74;95.79;100892.09;5071697;28;20036;-71
2020/12/23 07:09:02;;;;;;;5.85;5.45;;;13.40;99.90;;;13.73;96.05;100897.41;5071400;28;20047;-70
2020/12/23 07:11:34;;;;;;;6.18;5.70;;;13.40;99.90;;;11.53;95.61;100501.91;5071782;28;20098;-70
2020/12/23 07:14:04;;;;;;;6.70;6.13;;;13.50;99.90;;;13.87;95.75;100882.13;5071595;28;20052;-71
2020/12/23 07:16:40;;;;;;;6.63;6.13;;;13.60;99.90;;;13.87;95.49;100887.44;5071328;28;20074;-70
2020/12/23 07:19:09;;;;;;;6.30;5.80;;;13.60;99.90;;;13.81;95.31;100864.50;5071259;28;20037;-71
2020/12/23 07:21:37;;;;;;;7.10;6.50;;;13.70;99.90;;;13.96;95.51;100880.16;5071247;28;20040;-71
2020/12/23 07:24:06;;;;;;;7.60;7.00;;;13.70;99.90;;;14.05;94.75;100887.13;5071464;28;20049;-71
2020/12/23 07:26:38;;;;;;;8.45;7.75;;;13.70;99.90;;;14.00;94.92;100891.63;5074760;28;20490;-71
2020/12/23 07:29:09;;;;;;;9.70;8.90;;;13.70;99.90;;;13.92;94.78;100877.56;5074808;28;20501;-71
2020/12/23 07:31:40;;;;;;;10.32;9.43;;;13.70;99.90;;;14.00;95.26;100895.16;5074834;28;20052;-70
2020/12/23 07:34:10;;;;;;;10.40;9.50;;;13.70;99.90;;;14.02;94.71;100898.66;5074848;28;20058;-71
2020/12/23 07:36:38;;;;;;;12.03;11.03;;;13.70;99.90;;;13.92;94.78;100877.56;5074951;28;20044;-71
2020/12/23 07:39:06;;;;;;;13.10;11.85;;;13.70;99.90;;;13.97;94.84;100897.91;5074788;28;20283;-71
2020/12/23 07:41:33;;;;;;;12.48;11.38;;;13.70;99.90;;;13.76;94.94;100868.13;5074900;28;20113;-71
2020/12/23 07:44:01;;;;;;;13.35;12.23;;;13.70;99.90;;;13.85;95.33;100897.22;5074440;28;20124;-70
2020/12/23 07:46:28;;;;;;;12.27;11.18;;;13.60;99.90;;;13.96;95.41;100900.56;5074748;28;20037;-70
2020/12/23 07:48:55;;;;;;;14.18;12.98;;;13.60;99.90;;;13.93;95.17;100895.31;5074698;28;20072;-71
2020/12/23 07:51:24;;;;;;;13.30;12.10;;;13.60;99.90;;;13.87;95.09;100890.09;5074668;28;20054;-71
2020/12/23 07:53:51;;;;;;;14.90;12.30;;;13.60;99.90;;;13.83;95.03;100875.09;5074513;28;20071;-71
2020/12/23 07:56:18;;;;;;;12.60;11.50;;;13.60;99.90;;;13.71;95.68;100872.63;5074241;28;20044;-71
2020/12/23 07:58:46;;;;;;;13.13;11.93;;;13.60;99.90;;;13.99;95.52;100889.88;5073219;28;20098;-71
2020/12/23 08:01:14;;;;;;;13.30;12.05;;;13.60;99.90;;;13.94;95.07;100886.41;5073263;28;20047;-71
2020/12/23 08:03:41;;;;;;;12.40;11.35;;;13.70;99.90;;;14.04;94.77;100888.00;5074413;28;20068;-71
2020/12/23 08:06:10;;;;;;;10.90;9.95;;;13.70;99.90;;;14.07;94.53;100882.66;5074126;28;20136;-71
2020/12/23 08:08:40;;;;;;;10.63;9.73;;;13.80;99.90;;;14.00;94.23;100886.31;5074330;28;20037;-71
2020/12/23 08:11:09;;;;;;;11.80;9.02;;;13.70;99.90;;;13.97;94.14;100889.91;5074289;28;20045;-71
2020/12/23 08:13:37;;;;;;;10.45;8.57;;;13.70;99.90;;;14.04;94.32;100890.66;5074181;28;20091;-71
2020/12/23 08:16:07;;;;;;;9.23;8.35;;;13.70;99.90;;;12.90;93.77;100758.84;5073945;28;20450;-71
2020/12/23 08:18:37;;;;;;;8.90;8.13;;;13.70;99.90;;;14.06;93.90;100897.72;5074247;28;20106;-71
2020/12/23 08:21:09;;;;;;;8.38;7.55;;;13.80;99.90;;;13.78;93.38;100869.84;5074085;28;20052;-71
2020/12/23 08:23:38;;;;;;;9.90;8.15;;;13.80;99.90;;;13.97;93.64;100907.66;5074125;28;20044;-71
2020/12/23 08:26:06;;;;;;;9.05;8.13;;;13.70;99.90;;;13.98;93.73;100909.38;5074293;28;20715;-71
2020/12/23 08:28:36;;;;;;;8.52;7.35;;;13.70;99.90;;;13.97;93.58;100912.97;5073617;28;20059;-71
2020/12/23 08:31:05;;;;;;;7.97;7.37;;;13.70;99.90;;;13.89;93.98;100918.41;5073638;28;20040;-72
2020/12/23 08:33:34;;;;;;;8.45;7.80;;;13.70;99.90;;;13.70;93.70;100865.59;5073827;28;20315;-71
2020/12/23 08:36:04;;;;;;;8.43;7.60;;;13.70;99.90;;;13.76;93.68;100884.97;5073055;28;20090;-71
2020/12/23 08:38:41;;;;;;;8.70;8.00;;;13.70;99.90;;;13.81;94.25;100907.03;5073492;28;20370;-71
2020/12/23 08:41:17;;;;;;;8.52;7.82;;;13.60;99.90;;;13.93;94.33;100901.50;5073835;28;20477;-71
2020/12/23 08:43:47;;;;;;;9.25;8.43;;;13.60;99.90;;;13.82;94.43;100907.91;5073457;28;20051;-71
2020/12/23 08:46:21;;;;;;;10.73;9.63;;;13.60;99.90;;;13.73;94.42;100873.50;5073500;28;20075;-71
2020/12/23 08:48:50;;;;;;;10.73;9.77;;;13.60;99.90;;;13.90;94.06;100900.69;5073645;28;20054;-71
2020/12/23 08:51:20;;;;;;;12.15;10.10;;;13.60;99.90;;;13.89;94.33;100901.56;5072179;28;20051;-71
2020/12/23 08:53:52;;;;;;;11.68;10.55;;;13.60;99.90;;;13.82;94.25;100892.81;5073519;28;20446;-71
2020/12/23 08:56:26;;;;;;;11.05;9.98;;;13.50;99.90;;;13.89;94.28;100885.63;5073071;28;20127;-71
2020/12/23 08:58:59;;;;;;;11.32;10.13;;;13.60;99.90;;;13.82;94.51;100871.53;5072858;28;20052;-70
2020/12/23 09:01:28;;;;;;;10.40;9.50;;;13.60;99.90;;;13.92;94.46;100891.75;5073564;28;20045;-70
2020/12/23 09:04:00;;;;;;;11.43;10.43;;;13.60;99.90;;;13.78;94.31;100874.31;5072850;28;20040;-70
2020/12/23 09:06:28;;;;;;;10.75;9.70;;;13.60;99.90;;;13.92;94.45;100869.59;5072961;28;20048;-71
2020/12/23 09:09:11;;;;;;;11.95;10.55;;;13.70;99.90;;;13.67;94.32;100817.78;5073179;28;20142;-70
2020/12/23 09:11:44;;;;;;;13.25;12.15;;;13.70;99.90;;;13.89;94.40;100859.03;5072796;28;20033;-70
2020/12/23 09:14:30;;;;;;;14.52;13.00;;;13.60;99.90;;;13.92;94.12;100849.22;5073005;28;20052;-70
2020/12/23 09:17:02;;;;;;;14.95;13.65;;;13.60;99.90;;;13.74;94.24;100822.97;5073011;28;20098;-70
2020/12/23 09:19:51;;;;;;;13.30;11.82;;;13.60;99.90;;;13.96;94.13;100855.34;5071735;28;20716;-70
2020/12/23 09:22:41;;;;;;;10.43;9.52;;;13.70;99.90;;;13.78;94.01;100802.53;5071608;28;20060;-70
2020/12/23 09:25:18;;;;;;;9.20;8.40;;;13.70;99.90;;;13.89;94.06;100824.47;5068766;28;20056;-70
2020/12/23 09:27:47;;;;;;;8.90;8.10;;;13.70;99.90;;;13.96;94.03;100823.44;5072556;28;20062;-71
2020/12/23 09:30:32;;;;;;;7.57;6.78;;;13.70;99.90;;;13.79;93.58;100798.94;5072749;28;20074;-71
2020/12/23 09:33:00;;;;;;;7.03;6.43;;;13.70;99.90;;;13.87;94.10;100821.84;5072187;28;20505;-71
2020/12/23 09:35:29;;;;;;;7.78;6.95;;;13.60;99.90;;;13.90;93.85;100818.25;5071347;28;20044;-71
2020/12/23 09:38:11;;;;;;;7.45;6.75;;;13.70;99.90;;;13.84;93.95;100792.63;5072608;28;20090;-71
2020/12/23 09:40:43;;;;;;;8.38;7.28;;;13.70;99.90;;;13.79;94.05;100791.84;5072343;28;20041;-71
2020/12/23 09:43:13;;;;;;;8.95;7.25;;;13.70;99.90;;;13.76;94.29;100791.94;5072609;28;20041;-71
2020/12/23 09:45:42;;;;;;;8.18;7.35;;;13.70;99.90;;;13.79;94.54;100798.94;5072580;28;20067;-71
2020/12/23 09:48:13;;;;;;;7.45;6.50;;;13.70;99.90;;;13.46;94.78;100749.94;5071859;28;20048;-71
2020/12/23 09:50:42;;;;;;;7.00;6.30;;;13.70;99.90;;;13.75;94.94;100794.59;5071166;28;20057;-71
2020/12/23 09:53:10;;;;;;;7.32;6.63;;;13.70;99.90;;;13.70;94.64;100793.81;5072160;28;20036;-71
2020/12/23 09:55:41;;;;;;;9.15;7.07;;;13.70;99.90;;;13.70;94.84;100799.13;5072366;28;20044;-71
2020/12/23 09:58:08;;;;;;;9.55;8.27;;;13.60;99.90;;;13.66;95.08;100805.41;5072408;28;20118;-71
2020/12/23 10:00:36;;;;;;;11.07;9.93;;;13.60;99.90;;;13.50;95.84;100796.81;5072657;28;20090;-71
2020/12/23 10:03:04;;;;;;;13.57;12.18;;;13.40;99.90;;;13.39;95.94;100786.38;5072096;28;20066;-72
2020/12/23 10:05:32;;;;;;;14.02;12.52;;;13.30;99.90;;;13.51;95.96;100787.97;5072382;28;20040;-71
2020/12/23 10:08:01;;;;;;;15.98;13.25;;;13.40;99.90;;;13.40;96.16;100766.88;5072316;28;20433;-71
2020/12/23 10:10:28;;;;;;;14.75;12.18;;;13.40;99.90;;;13.39;96.32;100770.41;5071991;28;20482;-71
2020/12/23 10:12:57;;;;;;;14.98;12.70;;;13.30;99.90;;;13.40;96.89;100773.97;5071831;28;20044;-71